createdAt,value
2022-11-02T00:01:57.937Z,77.17
2022-11-02T00:04:28.512Z,77.25
2022-11-02T00:06:59.366Z,77.38
2022-11-02T00:09:29.790Z,77.44
2022-11-02T00:12:00.216Z,77.60
2022-11-02T00:14:30.577Z,77.81
2022-11-02T00:17:01.118Z,77.92
2022-11-02T00:19:32.015Z,78.05
2022-11-02T00:22:02.972Z,78.07
2022-11-02T00:24:34.941Z,78.18
2022-11-02T00:27:05.453Z,78.23
2022-11-02T00:29:36.699Z,78.27
2022-11-02T00:32:07.705Z,78.26
2022-11-02T00:34:38.175Z,78.45
2022-11-02T00:37:08.994Z,78.56
2022-11-02T00:39:39.771Z,78.64
2022-11-02T00:42:10.296Z,78.80
2022-11-02T00:44:41.116Z,78.72
2022-11-02T00:53:37.442Z,78.97
2022-11-02T00:56:09.493Z,79.26
2022-11-02T00:58:39.994Z,79.14
2022-11-02T01:01:11.651Z,79.07
2022-11-02T01:03:42.153Z,78.90
2022-11-02T01:06:15.096Z,78.69
2022-11-02T01:08:44.027Z,78.53
2022-11-02T01:11:16.680Z,78.54
2022-11-02T01:13:48.428Z,78.63
2022-11-02T01:16:21.534Z,78.62
2022-11-02T01:18:55.421Z,78.70
2022-11-02T01:21:26.310Z,78.48
2022-11-02T01:23:57.691Z,78.33
2022-11-02T01:26:28.188Z,78.33
2022-11-02T01:28:58.673Z,78.18
2022-11-02T01:31:29.160Z,77.99
2022-11-02T01:33:59.681Z,77.96
2022-11-02T01:36:30.231Z,77.83
2022-11-02T01:39:00.698Z,77.76
2022-11-02T01:41:31.455Z,77.62
2022-11-02T01:44:05.398Z,77.48
2022-11-02T01:46:40.906Z,77.29
2022-11-02T01:49:14.416Z,77.31
2022-11-02T01:51:47.889Z,77.21
2022-11-02T01:54:20.037Z,77.20
2022-11-02T01:56:53.711Z,77.10
2022-11-02T01:59:35.704Z,76.99
2022-11-02T02:02:10.349Z,77.13
2022-11-02T02:04:41.028Z,77.20
2022-11-02T02:07:11.933Z,77.28
2022-11-02T02:09:47.163Z,77.33
2022-11-02T02:12:21.225Z,77.33
2022-11-02T02:14:52.990Z,77.20
2022-11-02T02:17:32.991Z,77.06
2022-11-02T02:20:07.258Z,77.00
2022-11-02T02:23:19.872Z,76.95
2022-11-02T02:26:18.819Z,76.88
2022-11-02T02:28:52.300Z,76.91
2022-11-02T02:31:27.169Z,76.77
2022-11-02T02:34:02.154Z,76.90
2022-11-02T02:36:35.585Z,77.09
2022-11-02T02:39:10.479Z,77.57
2022-11-02T02:41:42.140Z,77.82
2022-11-02T02:44:14.478Z,78.23
2022-11-02T02:46:49.061Z,78.41
2022-11-02T02:49:23.505Z,78.69
2022-11-02T02:51:54.201Z,78.82
2022-11-02T02:54:27.077Z,78.90
2022-11-02T02:57:01.308Z,78.91
2022-11-02T02:59:35.164Z,79.05
2022-11-02T03:02:09.826Z,78.97
2022-11-02T03:04:40.504Z,78.94
2022-11-02T03:07:15.952Z,78.87
2022-11-02T03:09:49.187Z,78.97
2022-11-02T03:12:29.131Z,79.01
2022-11-02T03:15:10.375Z,78.88
2022-11-02T03:17:50.839Z,78.84
2022-11-02T03:20:26.662Z,78.59
2022-11-02T03:23:06.574Z,78.66
2022-11-02T03:25:41.925Z,78.54
2022-11-02T03:28:17.591Z,78.60
2022-11-02T03:30:50.947Z,78.33
2022-11-02T03:33:25.238Z,78.38
2022-11-02T03:35:59.751Z,78.25
2022-11-02T03:38:35.966Z,78.08
2022-11-02T03:41:07.368Z,78.01
2022-11-02T03:43:39.387Z,78.06
2022-11-02T03:46:11.067Z,78.09
2022-11-02T03:48:44.009Z,78.17
2022-11-02T03:51:17.019Z,78.01
2022-11-02T03:53:50.848Z,77.87
2022-11-02T03:56:26.263Z,77.69
2022-11-02T03:58:57.163Z,77.56
2022-11-02T04:01:29.740Z,77.39
2022-11-02T04:04:00.812Z,77.20
2022-11-02T04:06:31.297Z,77.09
2022-11-02T04:09:03.867Z,77.00
2022-11-02T04:11:52.320Z,76.61
2022-11-02T04:14:41.420Z,76.46
2022-11-02T04:17:35.515Z,76.37
2022-11-02T04:20:10.584Z,76.29
2022-11-02T04:22:58.542Z,76.30
2022-11-02T04:25:29.275Z,76.11
2022-11-02T04:28:18.161Z,76.03
2022-11-02T04:30:58.664Z,75.99
2022-11-02T04:33:36.507Z,75.80
2022-11-02T04:36:14.945Z,75.92
2022-11-02T04:38:45.893Z,75.94
2022-11-02T04:41:45.847Z,75.94
2022-11-02T04:44:35.078Z,75.97
2022-11-02T04:47:12.041Z,75.98
2022-11-02T04:49:42.547Z,76.06
2022-11-02T04:52:15.535Z,76.28
2022-11-02T04:54:51.024Z,76.40
2022-11-02T04:57:21.856Z,76.48
2022-11-02T04:59:56.171Z,76.73
2022-11-02T05:02:26.824Z,77.04
2022-11-02T05:04:58.290Z,77.34
2022-11-02T05:07:29.633Z,77.62
2022-11-02T05:10:00.164Z,77.78
2022-11-02T05:12:31.337Z,78.00
2022-11-02T05:15:03.325Z,78.20
2022-11-02T05:17:33.897Z,78.26
2022-11-02T05:20:05.913Z,78.42
2022-11-02T05:22:36.469Z,78.69
2022-11-02T05:25:07.882Z,79.02
2022-11-02T05:27:40.086Z,79.26
2022-11-02T05:30:13.633Z,79.35
2022-11-02T05:32:44.389Z,79.60
2022-11-02T05:35:15.000Z,79.75
2022-11-02T05:37:46.704Z,79.89
2022-11-02T05:40:17.213Z,80.13
2022-11-02T05:42:47.823Z,80.64
2022-11-02T05:45:22.087Z,80.57
2022-11-02T05:47:54.175Z,80.69
2022-11-02T05:50:24.635Z,80.83
2022-11-02T05:52:56.728Z,81.39
2022-11-02T05:55:27.305Z,81.83
2022-11-02T05:57:58.326Z,81.79
2022-11-02T06:00:29.219Z,82.04
2022-11-02T06:02:59.988Z,82.63
2022-11-02T06:05:30.835Z,82.67
2022-11-02T06:08:02.621Z,82.93
2022-11-02T06:10:33.226Z,83.22
2022-11-02T06:13:05.171Z,83.38
2022-11-02T06:15:36.015Z,83.66
2022-11-02T06:18:07.840Z,83.46
2022-11-02T06:20:38.372Z,83.36
2022-11-02T06:23:09.178Z,83.14
2022-11-02T06:25:40.040Z,83.60
2022-11-02T06:28:10.445Z,83.72
2022-11-02T06:30:41.650Z,83.71
2022-11-02T06:33:12.405Z,83.86
2022-11-02T06:35:44.074Z,83.73
2022-11-02T06:38:14.861Z,83.75
2022-11-02T06:40:45.692Z,83.74
2022-11-02T06:43:17.424Z,83.71
2022-11-02T06:45:48.385Z,83.50
2022-11-02T06:48:18.783Z,83.45
2022-11-02T06:50:49.172Z,83.38
2022-11-02T06:53:19.710Z,83.12
2022-11-02T06:55:55.120Z,83.06
2022-11-02T06:58:26.064Z,82.75
2022-11-02T07:01:01.780Z,82.47
2022-11-02T07:03:33.127Z,82.56
2022-11-02T07:06:03.758Z,81.99
2022-11-02T07:08:34.146Z,81.05
2022-11-02T07:11:04.984Z,79.88
2022-11-02T07:13:35.421Z,78.26
2022-11-02T07:16:06.140Z,77.28
2022-11-02T07:18:36.675Z,75.90
2022-11-02T07:21:10.496Z,75.15
2022-11-02T07:23:41.163Z,73.83
2022-11-02T07:26:11.774Z,72.72
2022-11-02T07:28:42.275Z,71.75
2022-11-02T07:31:12.626Z,70.66
2022-11-02T07:33:43.271Z,69.50
2022-11-02T07:36:13.956Z,68.04
2022-11-02T07:38:44.788Z,67.24
2022-11-02T07:41:15.256Z,66.43
2022-11-02T07:43:45.918Z,65.55
2022-11-02T07:46:28.585Z,65.47
2022-11-02T07:48:59.141Z,64.40
2022-11-02T07:51:30.868Z,64.11
2022-11-02T07:54:02.649Z,63.25
2022-11-02T07:56:33.193Z,62.98
2022-11-02T07:59:03.766Z,62.11
2022-11-02T08:01:34.257Z,61.26
2022-11-02T08:04:04.925Z,61.10
2022-11-02T08:06:37.000Z,60.82
2022-11-02T08:09:10.512Z,60.50
2022-11-02T08:11:41.167Z,59.32
2022-11-02T08:14:16.061Z,58.50
2022-11-02T08:16:48.144Z,58.81
2022-11-02T08:19:18.935Z,58.74
2022-11-02T08:21:50.131Z,58.57
2022-11-02T08:24:20.811Z,58.76
2022-11-02T08:26:53.953Z,58.56
2022-11-02T08:29:25.574Z,58.44
2022-11-02T08:31:56.381Z,58.49
2022-11-02T08:34:26.939Z,58.81
2022-11-02T08:36:58.231Z,59.46
2022-11-02T08:39:28.802Z,58.72
2022-11-02T08:41:59.285Z,58.55
2022-11-02T08:44:29.899Z,58.40
2022-11-02T08:47:02.150Z,58.43
2022-11-02T08:49:34.687Z,58.05
2022-11-02T08:52:05.429Z,57.05
2022-11-02T08:54:36.020Z,56.97
2022-11-02T08:57:06.621Z,55.73
2022-11-02T08:59:42.176Z,56.31
2022-11-02T09:02:12.989Z,55.44
2022-11-02T09:04:43.992Z,54.11
2022-11-02T09:07:14.589Z,52.33
2022-11-02T09:09:45.462Z,51.31
2022-11-02T09:12:17.661Z,51.28
2022-11-02T09:14:50.820Z,50.33
2022-11-02T09:17:21.431Z,49.48
2022-11-02T09:19:52.135Z,49.01
2022-11-02T09:22:22.715Z,49.12
2022-11-02T09:24:53.967Z,48.29
2022-11-02T09:27:25.352Z,48.42
2022-11-02T09:29:55.939Z,48.79
2022-11-02T09:32:26.539Z,48.33
2022-11-02T09:34:56.927Z,47.86
2022-11-02T09:37:32.096Z,48.10
2022-11-02T09:40:05.559Z,46.14
2022-11-02T09:42:51.849Z,45.70
2022-11-02T09:45:23.320Z,45.78
2022-11-02T09:50:51.565Z,44.46
2022-11-02T09:53:28.749Z,44.71
2022-11-02T09:56:03.839Z,43.90
2022-11-02T09:58:40.508Z,42.83
2022-11-02T10:01:24.822Z,42.61
2022-11-02T10:04:08.763Z,41.64
2022-11-02T10:06:43.658Z,41.16
2022-11-02T10:09:19.867Z,40.78
2022-11-02T10:11:59.611Z,40.97
2022-11-02T10:14:34.804Z,40.27
2022-11-02T10:17:12.867Z,41.17
2022-11-02T10:19:48.421Z,41.35
2022-11-02T10:22:21.037Z,40.82
2022-11-02T10:24:54.640Z,41.30
2022-11-02T10:27:30.945Z,41.36
2022-11-02T10:30:05.865Z,42.44
2022-11-02T10:32:40.946Z,43.08
2022-11-02T10:35:37.016Z,44.52
2022-11-02T10:38:22.805Z,45.00
2022-11-02T10:40:58.540Z,44.53
2022-11-02T10:43:52.366Z,44.38
2022-11-02T10:46:39.810Z,42.77
2022-11-02T10:49:20.444Z,41.29
2022-11-02T10:51:53.156Z,40.90
2022-11-02T11:01:07.445Z,39.39
2022-11-02T11:03:56.743Z,39.61
2022-11-02T11:06:32.354Z,39.01
2022-11-02T11:09:16.112Z,38.95
2022-11-02T11:11:55.539Z,37.37
2022-11-02T11:20:30.813Z,39.54
2022-11-02T11:23:19.927Z,41.00
2022-11-02T11:26:02.223Z,42.24
2022-11-02T11:28:35.731Z,43.55
2022-11-02T11:31:14.369Z,44.03
2022-11-02T11:33:48.239Z,45.29
2022-11-02T11:36:26.978Z,45.83
2022-11-02T11:39:00.353Z,44.85
2022-11-02T11:41:31.549Z,45.52
2022-11-02T11:44:02.991Z,45.49
2022-11-02T11:46:43.932Z,45.91
2022-11-02T11:49:36.042Z,46.31
2022-11-02T11:52:20.170Z,46.14
2022-11-02T11:54:59.548Z,46.81
2022-11-02T11:57:32.448Z,47.37
2022-11-02T12:00:06.740Z,47.98
2022-11-02T12:02:44.271Z,48.53
2022-11-02T12:05:17.626Z,48.86
2022-11-02T12:08:02.403Z,48.98
2022-11-02T12:10:44.151Z,48.99
2022-11-02T12:13:27.335Z,49.24
2022-11-02T12:16:08.596Z,49.40
2022-11-02T12:18:51.316Z,49.76
2022-11-02T12:21:35.234Z,49.64
2022-11-02T12:24:23.415Z,49.81
2022-11-02T12:27:03.183Z,50.14
2022-11-02T12:29:57.481Z,50.17
2022-11-02T12:32:42.106Z,50.56
2022-11-02T12:35:38.130Z,50.64
2022-11-02T12:38:29.651Z,50.95
2022-11-02T12:41:05.174Z,51.64
2022-11-02T12:43:43.250Z,51.13
2022-11-02T12:46:34.036Z,51.03
2022-11-02T12:49:25.978Z,51.08
2022-11-02T12:52:01.686Z,51.65
2022-11-02T12:54:41.733Z,51.39
2022-11-02T12:57:17.001Z,51.69
2022-11-02T12:59:49.498Z,52.14
2022-11-02T13:02:22.527Z,52.77
2022-11-02T13:04:55.828Z,53.30
2022-11-02T13:07:30.683Z,54.32
2022-11-02T13:10:06.549Z,53.73
2022-11-02T13:12:39.644Z,53.81
2022-11-02T13:15:16.773Z,54.09
2022-11-02T13:17:50.291Z,53.61
2022-11-02T13:20:23.298Z,53.94
2022-11-02T13:22:57.083Z,53.62
2022-11-02T13:25:31.418Z,53.12
2022-11-02T13:28:06.116Z,53.22
2022-11-02T13:30:37.288Z,52.35
2022-11-02T13:33:15.415Z,52.00
2022-11-02T13:35:46.280Z,51.79
2022-11-02T13:38:28.561Z,50.53
2022-11-02T13:41:09.172Z,50.03
2022-11-02T13:44:12.436Z,50.41
2022-11-02T13:46:59.080Z,49.85
2022-11-02T13:49:32.701Z,49.97
2022-11-02T13:52:07.447Z,49.84
2022-11-02T13:54:43.408Z,50.37
2022-11-02T13:57:30.021Z,50.31
2022-11-02T14:00:00.908Z,50.18
2022-11-02T14:02:35.005Z,50.21
2022-11-02T14:05:05.828Z,50.53
2022-11-02T14:07:40.226Z,50.80
2022-11-02T14:10:17.324Z,50.90
2022-11-02T14:12:48.682Z,50.56
2022-11-02T14:15:54.533Z,50.89
2022-11-02T14:18:34.659Z,51.07
2022-11-02T14:21:35.699Z,51.48
2022-11-02T14:24:46.219Z,51.86
2022-11-02T14:27:31.190Z,52.16
2022-11-02T14:30:01.938Z,52.30
2022-11-02T14:32:57.424Z,52.66
2022-11-02T14:35:38.885Z,52.25
2022-11-02T14:38:29.384Z,52.02
2022-11-02T14:41:05.417Z,52.14
2022-11-02T14:44:15.946Z,52.12
2022-11-02T14:46:57.824Z,52.10
2022-11-02T14:49:32.373Z,52.16
2022-11-02T14:52:05.803Z,52.16
2022-11-02T14:54:40.571Z,52.32
2022-11-02T14:57:21.650Z,52.56
2022-11-02T14:59:53.586Z,52.43
2022-11-02T15:02:28.402Z,52.65
2022-11-02T15:05:02.894Z,53.23
2022-11-02T15:07:36.982Z,53.47
2022-11-02T15:10:30.530Z,54.08
2022-11-02T15:13:31.747Z,54.00
2022-11-02T15:16:41.555Z,54.13
2022-11-02T15:19:40.118Z,54.45
2022-11-02T15:22:35.863Z,54.79
2022-11-02T15:25:10.923Z,55.11
2022-11-02T15:27:43.469Z,55.42
2022-11-02T15:30:17.981Z,55.76
2022-11-02T15:32:51.125Z,56.35
2022-11-02T15:35:23.978Z,56.39
2022-11-02T15:38:15.963Z,56.91
2022-11-02T15:40:50.168Z,57.47
2022-11-02T15:43:35.298Z,57.89
2022-11-02T15:46:10.685Z,57.90
2022-11-02T15:48:47.476Z,58.47
2022-11-02T15:51:22.625Z,58.88
2022-11-02T15:54:07.274Z,58.93
2022-11-02T15:56:53.053Z,59.59
2022-11-02T15:59:37.732Z,60.11
2022-11-02T16:02:22.296Z,60.05
2022-11-02T16:04:54.688Z,60.57
2022-11-02T16:07:33.524Z,60.80
2022-11-02T16:10:22.791Z,61.41
2022-11-02T16:13:00.278Z,61.91
2022-11-02T16:15:31.523Z,62.29
2022-11-02T16:18:02.141Z,62.68
2022-11-02T16:20:35.899Z,62.98
2022-11-02T16:29:10.570Z,63.76
2022-11-02T16:31:41.527Z,64.06
2022-11-02T16:34:19.868Z,64.41
2022-11-02T16:36:50.814Z,64.70
2022-11-02T16:39:23.875Z,64.76
2022-11-02T16:41:57.332Z,65.03
2022-11-02T16:44:30.430Z,65.20
2022-11-02T16:47:15.139Z,65.25
2022-11-02T16:52:47.706Z,65.52
2022-11-02T16:58:35.560Z,65.57
2022-11-02T17:01:07.587Z,66.01
2022-11-02T17:03:38.286Z,66.07
2022-11-02T17:06:09.392Z,66.16
2022-11-02T17:08:41.183Z,66.11
2022-11-02T17:11:16.160Z,66.27
2022-11-02T17:13:50.117Z,66.53
2022-11-02T17:16:20.827Z,66.65
2022-11-02T17:18:51.355Z,66.70
2022-11-02T17:21:32.062Z,67.00
2022-11-02T17:24:03.103Z,67.20
2022-11-02T17:26:40.317Z,67.41
2022-11-02T17:29:33.399Z,67.73
2022-11-02T17:32:05.346Z,67.73
2022-11-02T17:34:36.146Z,67.68
2022-11-02T17:37:08.781Z,68.06
2022-11-02T17:39:39.283Z,68.28
2022-11-02T17:42:31.840Z,68.36
2022-11-02T17:45:24.300Z,68.41
2022-11-02T17:47:55.294Z,68.49
2022-11-02T17:50:27.024Z,68.47
2022-11-02T17:52:58.086Z,68.61
2022-11-02T17:55:29.671Z,68.60
2022-11-02T17:58:00.886Z,68.62
2022-11-02T18:00:31.583Z,68.72
2022-11-02T18:03:02.629Z,68.83
2022-11-02T18:05:36.837Z,68.91
2022-11-02T18:08:10.245Z,68.96
2022-11-02T18:10:42.483Z,69.21
2022-11-02T18:13:14.350Z,69.15
2022-11-02T18:15:45.058Z,69.16
2022-11-02T18:18:15.603Z,69.42
2022-11-02T18:20:46.192Z,69.69
2022-11-02T18:23:19.806Z,69.65
2022-11-02T18:25:52.813Z,69.70
2022-11-02T18:28:25.945Z,69.67
2022-11-02T18:30:56.433Z,69.77
2022-11-02T18:33:26.849Z,69.83
2022-11-02T18:36:04.493Z,70.17
2022-11-02T18:38:35.037Z,70.30
2022-11-02T18:41:22.716Z,70.47
2022-11-02T18:43:53.224Z,70.74
2022-11-02T18:46:26.617Z,70.67
2022-11-02T18:49:00.445Z,70.77
2022-11-02T18:51:31.250Z,70.94
2022-11-02T18:54:02.974Z,71.02
2022-11-02T18:56:33.492Z,71.43
2022-11-02T18:59:04.229Z,71.73
2022-11-02T19:01:34.846Z,71.81
2022-11-02T19:04:05.579Z,71.81
2022-11-02T19:06:53.871Z,71.93
2022-11-02T19:09:26.972Z,72.09
2022-11-02T19:12:02.250Z,72.12
2022-11-02T19:14:34.527Z,72.28
2022-11-02T19:17:05.745Z,72.41
2022-11-02T19:19:36.390Z,72.45
2022-11-02T19:22:06.782Z,72.51
2022-11-02T19:24:37.262Z,72.58
2022-11-02T19:27:44.500Z,72.67
2022-11-02T19:30:11.297Z,72.77
2022-11-02T19:32:41.766Z,72.90
2022-11-02T19:35:12.413Z,72.95
2022-11-02T19:37:42.869Z,72.99
2022-11-02T19:40:14.622Z,73.00
2022-11-02T19:42:47.314Z,72.72
2022-11-02T19:45:17.917Z,72.71
2022-11-02T19:47:51.081Z,72.81
2022-11-02T19:50:21.545Z,72.87
2022-11-02T19:52:52.213Z,72.98
2022-11-02T19:55:28.536Z,73.05
2022-11-02T19:58:01.991Z,73.09
2022-11-02T20:00:32.772Z,73.15
2022-11-02T20:03:05.120Z,73.29
2022-11-02T20:05:35.656Z,73.40
2022-11-02T20:08:06.450Z,73.42
2022-11-02T20:10:37.328Z,73.47
2022-11-02T20:13:07.932Z,73.48
2022-11-02T20:15:40.559Z,73.45
2022-11-02T20:18:19.573Z,73.57
2022-11-02T20:20:52.398Z,73.55
2022-11-02T20:23:23.043Z,73.47
2022-11-02T20:25:53.434Z,73.54
2022-11-02T20:28:23.860Z,73.55
2022-11-02T20:30:54.359Z,73.63
2022-11-02T20:33:25.122Z,73.80
2022-11-02T20:35:55.746Z,73.86
2022-11-02T20:38:26.552Z,73.86
2022-11-02T20:40:57.792Z,73.98
2022-11-02T20:43:28.163Z,74.12
2022-11-02T20:46:35.834Z,74.16
2022-11-02T20:48:55.442Z,74.30
2022-11-02T20:51:26.306Z,74.31
2022-11-02T20:53:56.762Z,74.36
2022-11-02T20:56:27.250Z,74.49
2022-11-02T20:58:57.983Z,74.57
2022-11-02T21:01:28.422Z,74.58
2022-11-02T21:03:59.046Z,74.69
2022-11-02T21:06:29.570Z,74.70
2022-11-02T21:09:00.523Z,74.76
2022-11-02T21:11:48.715Z,74.83
2022-11-02T21:14:19.270Z,74.80
2022-11-02T21:16:50.070Z,74.77
2022-11-02T21:19:20.537Z,74.82
2022-11-02T21:21:55.030Z,74.89
2022-11-02T21:24:28.798Z,74.88
2022-11-02T21:26:59.288Z,74.91
2022-11-02T21:29:29.730Z,74.88
2022-11-02T21:32:00.621Z,74.98
2022-11-02T21:34:31.052Z,74.99
2022-11-02T21:37:03.059Z,75.06
2022-11-02T21:39:33.572Z,75.03
2022-11-02T21:42:04.567Z,75.00
2022-11-02T21:44:35.109Z,75.08
2022-11-02T21:47:05.542Z,75.04
2022-11-02T21:49:36.035Z,74.94
2022-11-02T21:52:06.879Z,74.85
2022-11-02T21:54:37.514Z,74.69
2022-11-02T21:57:08.044Z,74.53
2022-11-02T21:59:38.567Z,74.56
2022-11-02T22:02:09.405Z,74.54
2022-11-02T22:04:40.057Z,74.54
2022-11-02T22:07:10.446Z,74.77
2022-11-02T22:09:41.127Z,74.97
2022-11-02T22:12:28.946Z,75.13
2022-11-02T22:14:59.573Z,75.14
2022-11-02T22:17:49.236Z,75.25
2022-11-02T22:20:20.414Z,75.22
2022-11-02T22:22:50.778Z,75.15
2022-11-02T22:25:21.290Z,75.08
2022-11-02T22:27:52.421Z,74.91
2022-11-02T22:30:24.453Z,74.86
2022-11-02T22:32:54.855Z,74.98
2022-11-02T22:35:25.387Z,75.13
2022-11-02T22:38:13.138Z,75.03
2022-11-02T22:40:43.914Z,74.97
2022-11-02T22:43:14.434Z,75.07
2022-11-02T22:45:44.984Z,75.15
2022-11-02T22:48:15.559Z,75.24
2022-11-02T22:50:47.642Z,75.17
2022-11-02T22:53:18.104Z,75.28
2022-11-02T22:55:53.528Z,75.18
2022-11-02T22:58:25.166Z,75.12
2022-11-02T23:00:56.812Z,75.12
2022-11-02T23:03:27.634Z,75.10
2022-11-02T23:05:58.219Z,75.19
2022-11-02T23:08:29.508Z,75.26
2022-11-02T23:11:18.308Z,75.37
2022-11-02T23:13:50.044Z,75.42
2022-11-02T23:16:22.443Z,75.74
2022-11-02T23:19:12.543Z,75.88
2022-11-02T23:21:45.124Z,76.17
2022-11-02T23:24:33.411Z,76.32
2022-11-02T23:27:04.935Z,76.42
2022-11-02T23:29:52.742Z,76.50
2022-11-02T23:32:28.852Z,76.41
2022-11-02T23:35:17.761Z,76.44
2022-11-02T23:37:48.763Z,76.52
2022-11-02T23:40:19.975Z,76.68
2022-11-02T23:42:50.418Z,76.77
2022-11-02T23:45:20.802Z,76.98
2022-11-02T23:48:01.344Z,77.17
2022-11-02T23:50:50.961Z,77.38
2022-11-02T23:53:41.120Z,77.30
2022-11-02T23:56:34.154Z,77.43
2022-11-02T23:59:07.506Z,77.65
